Walcott, Iowa
Current Conditions -  °F | °C
As of 4:52 AM on Wednesday 22 Oct 2014 (Local Time) from KDVN Reporting Station
Clear Clear  
Wind Chill: 29°   Ceiling: Unl
Heat Index: 35°   Visibility: 10mi
Dew Point: 31°   Wind: 8mph
Humidity: 85%   Direction: 100°E
Pressure: 30.3"   Gusts: NA
Location:  41.58°N, 90.77°W
Report Text: KDVN 220952Z AUTO 10007KT 10SM CLR 02/M01 A3030 RMK AO2 SLP263 T00171006 TSNO
Loading
Personal Weather Stations






























Interactive Weather Map
Tropical Storm Tracking
New forecast layout! Learn more

10-Day Weather Forecast

Advertisements
Track Severe Weather on mobile